Time;durP1;ratioP1;P1;durP2;ratioP2;P2;SDS_P1;SDS_P2;PMS_P1;PMS_P2;Temp;Humidity;BMP_temperature;BMP_pressure;BME280_temperature;BME280_humidity;BME280_pressure;Samples;Min_cycle;Max_cycle;Signal;HPM_P1;HPM_P2
2023/03/14 00:01:21;;;;;;;13.57;7.88;;;26.80;91.80;;;;;;5021602;28;20034;-44
2023/03/14 00:03:48;;;;;;;17.17;8.13;;;26.80;91.70;;;;;;5011473;28;20042;-50
2023/03/14 00:06:15;;;;;;;16.55;7.63;;;26.80;91.70;;;;;;5014083;28;20030;-44
2023/03/14 00:08:43;;;;;;;16.23;7.68;;;26.80;91.60;;;;;;5029300;28;20042;-49
2023/03/14 00:11:13;;;;;;;12.68;7.40;;;26.80;91.60;;;;;;5043365;28;20009;-44
2023/03/14 00:13:50;;;;;;;17.38;7.18;;;26.80;91.70;;;;;;5042480;28;20052;-50
2023/03/14 00:16:16;;;;;;;15.70;7.30;;;26.80;91.80;;;;;;5027554;28;20076;-47
2023/03/14 00:18:43;;;;;;;14.30;9.18;;;26.80;91.80;;;;;;5027793;28;20029;-49
2023/03/14 00:21:11;;;;;;;14.30;9.20;;;26.80;91.80;;;;;;5009854;28;20254;-50
2023/03/14 00:23:40;;;;;;;14.63;8.25;;;26.80;91.90;;;;;;5027500;28;20036;-49
2023/03/14 00:26:09;;;;;;;13.40;7.90;;;26.80;91.90;;;;;;5027057;28;20030;-52
2023/03/14 00:28:36;;;;;;;17.95;7.82;;;26.70;91.80;;;;;;5027336;28;20038;-55
2023/03/14 00:31:04;;;;;;;14.63;7.55;;;26.70;91.80;;;;;;5027198;28;20029;-50
2023/03/14 00:33:31;;;;;;;14.77;7.45;;;26.70;91.80;;;;;;5027287;28;20328;-53
2023/03/14 00:36:00;;;;;;;15.23;7.53;;;26.70;91.80;;;;;;5026962;28;20029;-60
2023/03/14 00:38:27;;;;;;;13.75;7.30;;;26.70;91.80;;;;;;5026810;28;20048;-54
2023/03/14 00:40:57;;;;;;;15.63;8.18;;;26.70;91.80;;;;;;5027126;28;20057;-49
2023/03/14 00:43:24;;;;;;;17.83;7.80;;;26.70;91.90;;;;;;5027176;28;20034;-51
2023/03/14 00:45:55;;;;;;;18.58;8.38;;;26.70;91.90;;;;;;5027064;28;20149;-49
2023/03/14 00:48:22;;;;;;;11.63;7.03;;;26.70;92.00;;;;;;5026744;28;20020;-50
2023/03/14 00:50:48;;;;;;;15.38;8.23;;;26.70;92.00;;;;;;5027312;28;20031;-48
2023/03/14 00:53:16;;;;;;;15.52;7.53;;;26.60;92.00;;;;;;5026676;28;20336;-51
2023/03/14 00:55:43;;;;;;;18.45;7.50;;;26.60;92.00;;;;;;5026789;28;20034;-50
2023/03/14 00:58:12;;;;;;;13.85;9.35;;;26.60;92.00;;;;;;5026131;28;20053;-53
2023/03/14 01:00:40;;;;;;;16.40;8.57;;;26.60;91.90;;;;;;5026886;28;20045;-49
2023/03/14 01:03:11;;;;;;;18.20;8.43;;;26.60;91.90;;;;;;5026517;28;20029;-45
2023/03/14 01:05:38;;;;;;;13.55;8.10;;;26.60;91.90;;;;;;5026447;28;20033;-49
2023/03/14 01:08:06;;;;;;;18.23;8.35;;;26.60;92.00;;;;;;5026569;28;20018;-50
2023/03/14 01:10:34;;;;;;;14.20;7.63;;;26.60;92.00;;;;;;5026625;28;20034;-45
2023/03/14 01:13:01;;;;;;;13.80;8.18;;;26.60;92.00;;;;;;5026523;28;20044;-48
2023/03/14 01:15:27;;;;;;;17.83;8.70;;;26.60;91.90;;;;;;5026572;28;20101;-46
2023/03/14 01:17:54;;;;;;;15.23;8.27;;;26.60;91.90;;;;;;5025977;28;20025;-48
2023/03/14 01:20:21;;;;;;;18.02;8.40;;;26.60;91.90;;;;;;5026449;28;20034;-56
2023/03/14 01:22:48;;;;;;;17.77;7.85;;;26.50;91.90;;;;;;5026246;28;20072;-47
2023/03/14 01:25:16;;;;;;;15.55;7.03;;;26.50;91.90;;;;;;5026039;28;20060;-53
2023/03/14 01:27:42;;;;;;;16.33;7.55;;;26.50;91.90;;;;;;5026300;28;20037;-47
2023/03/14 01:30:11;;;;;;;12.63;8.40;;;26.60;91.90;;;;;;5026185;28;20043;-46
2023/03/14 01:32:38;;;;;;;15.82;8.77;;;26.50;91.90;;;;;;5025903;28;20029;-53
2023/03/14 01:35:05;;;;;;;13.75;9.25;;;26.50;91.90;;;;;;5026167;28;20191;-53
2023/03/14 01:37:31;;;;;;;17.88;8.77;;;26.50;92.00;;;;;;5025875;28;20052;-46
2023/03/14 01:39:58;;;;;;;14.95;7.95;;;26.50;92.00;;;;;;5024969;28;20298;-50
2023/03/14 01:42:25;;;;;;;18.17;7.95;;;26.50;92.10;;;;;;5017579;28;20030;-48
2023/03/14 01:44:57;;;;;;;13.85;7.55;;;26.30;91.70;;;;;;5006308;28;20318;-44
2023/03/14 01:47:24;;;;;;;16.80;8.75;;;26.10;92.40;;;;;;5005964;28;20034;-47
2023/03/14 01:50:04;;;;;;;17.77;7.95;;;26.10;92.30;;;;;;5005994;28;20247;-46
2023/03/14 01:52:43;;;;;;;48.30;10.70;;;25.90;92.10;;;;;;5006111;28;20337;-47
2023/03/14 01:55:19;;;;;;;45.28;9.80;;;25.90;92.50;;;;;;5006788;28;20081;-46
2023/03/14 01:57:51;;;;;;;53.70;10.93;;;25.90;92.50;;;;;;5008609;28;20289;-45
2023/03/14 02:00:30;;;;;;;39.85;10.30;;;26.00;92.60;;;;;;5021825;28;20030;-50
2023/03/14 02:03:11;;;;;;;23.67;9.10;;;26.10;92.40;;;;;;5009868;28;20037;-53
2023/03/14 02:05:40;;;;;;;18.02;8.15;;;26.20;92.40;;;;;;4997873;28;20318;-46
2023/03/14 02:08:13;;;;;;;16.38;8.98;;;26.20;92.30;;;;;;5005860;28;20039;-48
2023/03/14 02:10:44;;;;;;;18.25;7.82;;;26.30;92.30;;;;;;5006268;28;20033;-47
2023/03/14 02:13:11;;;;;;;15.07;7.80;;;26.30;92.40;;;;;;5005790;28;20084;-52
2023/03/14 02:15:40;;;;;;;18.58;7.60;;;26.30;92.30;;;;;;5005823;28;20030;-51
2023/03/14 02:18:09;;;;;;;18.27;7.43;;;26.30;92.10;;;;;;5005944;28;20089;-49
2023/03/14 02:21:02;;;;;;;16.58;7.30;;;26.40;92.00;;;;;;5006413;28;20037;-48
2023/03/14 02:24:06;;;;;;;13.70;6.47;;;26.40;91.90;;;;;;5006020;28;20030;-52
2023/03/14 02:26:45;;;;;;;15.95;7.43;;;26.40;91.70;;;;;;5000227;28;20050;-50
2023/03/14 02:36:07;;;;;;;14.32;6.72;;;26.50;91.30;;;;;;4986738;28;20049;-49
2023/03/14 02:38:55;;;;;;;11.55;6.95;;;26.40;91.40;;;;;;4988267;28;20397;-51
2023/03/14 02:41:44;;;;;;;14.82;7.38;;;26.40;91.60;;;;;;5014014;28;20053;-52
2023/03/14 02:44:11;;;;;;;19.80;7.38;;;26.40;91.50;;;;;;5010674;28;20093;-50
2023/03/14 02:46:38;;;;;;;12.15;6.75;;;26.40;91.60;;;;;;5026005;28;20033;-51
2023/03/14 02:49:24;;;;;;;13.98;6.80;;;26.40;91.60;;;;;;5025552;28;20018;-51
2023/03/14 02:51:50;;;;;;;12.80;6.53;;;26.40;91.80;;;;;;5007991;28;20029;-51
2023/03/14 02:54:19;;;;;;;15.95;6.68;;;26.40;91.90;;;;;;5024960;28;20064;-48
2023/03/14 02:56:46;;;;;;;13.18;6.20;;;26.40;91.90;;;;;;5025029;28;20036;-52
2023/03/14 02:59:13;;;;;;;10.95;6.45;;;26.40;92.10;;;;;;5025164;28;20026;-52
2023/03/14 03:01:39;;;;;;;13.18;6.22;;;26.30;92.10;;;;;;5017945;28;20037;-50
2023/03/14 03:04:06;;;;;;;11.05;6.05;;;26.30;92.10;;;;;;5016447;28;20045;-52
2023/03/14 03:06:33;;;;;;;15.35;6.82;;;26.30;92.00;;;;;;5004775;28;20242;-52
2023/03/14 03:08:59;;;;;;;12.45;6.45;;;26.30;91.90;;;;;;5004895;28;20089;-53
2023/03/14 03:11:26;;;;;;;12.10;6.47;;;26.30;92.00;;;;;;5014440;28;20010;-52
2023/03/14 03:13:53;;;;;;;13.25;6.55;;;26.30;91.90;;;;;;5013040;28;20025;-50
2023/03/14 03:16:19;;;;;;;10.48;6.38;;;26.30;91.90;;;;;;5020658;28;20084;-50
2023/03/14 03:18:46;;;;;;;13.60;6.00;;;26.30;91.80;;;;;;5015633;28;20052;-52
2023/03/14 03:21:12;;;;;;;12.35;6.60;;;26.30;91.70;;;;;;5021910;28;20028;-50
2023/03/14 03:23:39;;;;;;;11.38;6.25;;;26.30;91.70;;;;;;5004751;28;20034;-48
2023/03/14 03:26:06;;;;;;;9.52;6.28;;;26.30;91.60;;;;;;5004704;28;20214;-48
2023/03/14 03:28:32;;;;;;;13.02;6.35;;;26.40;91.60;;;;;;5005402;28;20215;-53
2023/03/14 03:30:59;;;;;;;14.50;6.40;;;26.40;91.50;;;;;;5005515;28;20034;-53
2023/03/14 03:33:26;;;;;;;11.45;6.20;;;26.40;91.40;;;;;;5044515;28;20036;-47
2023/03/14 03:35:53;;;;;;;11.02;5.72;;;26.40;91.40;;;;;;5044113;28;20037;-46
2023/03/14 03:38:20;;;;;;;10.18;6.43;;;26.40;91.30;;;;;;5044140;28;20296;-55
2023/03/14 03:40:46;;;;;;;10.75;6.18;;;26.40;91.30;;;;;;5044641;28;20073;-57
2023/03/14 03:43:13;;;;;;;9.15;5.70;;;26.40;91.30;;;;;;5048408;28;20045;-54
2023/03/14 03:45:40;;;;;;;9.35;6.07;;;26.40;91.30;;;;;;5048078;28;20044;-56
2023/03/14 03:48:06;;;;;;;8.68;6.13;;;26.40;91.30;;;;;;5048329;28;20109;-52
2023/03/14 03:50:33;;;;;;;11.00;5.72;;;26.40;91.30;;;;;;5047708;28;20249;-47
2023/03/14 03:53:00;;;;;;;9.73;5.72;;;26.40;91.20;;;;;;5030228;28;20033;-53
2023/03/14 03:55:27;;;;;;;10.77;6.10;;;26.40;91.20;;;;;;5028940;28;20220;-49
2023/03/14 03:57:55;;;;;;;9.07;6.35;;;26.40;91.20;;;;;;5013646;28;20033;-47
2023/03/14 04:00:22;;;;;;;8.95;6.30;;;26.50;91.20;;;;;;5008347;28;20092;-50
2023/03/14 04:02:49;;;;;;;10.05;6.47;;;26.50;91.20;;;;;;5010639;28;20044;-53
2023/03/14 04:05:15;;;;;;;9.60;6.18;;;26.50;91.20;;;;;;5016758;28;20022;-53
2023/03/14 04:07:42;;;;;;;11.02;6.25;;;26.40;91.20;;;;;;5007959;28;20057;-51
2023/03/14 04:10:09;;;;;;;11.48;6.07;;;26.40;91.20;;;;;;5008096;28;20038;-55
2023/03/14 04:12:36;;;;;;;9.68;6.00;;;26.50;91.20;;;;;;5008322;28;20026;-52
2023/03/14 04:15:02;;;;;;;11.20;6.50;;;26.40;91.00;;;;;;5008444;28;20036;-52
2023/03/14 04:17:29;;;;;;;10.30;5.88;;;26.40;91.00;;;;;;5008201;28;20033;-48
2023/03/14 04:19:56;;;;;;;8.57;6.05;;;26.40;91.00;;;;;;5007925;28;20029;-49
2023/03/14 04:22:22;;;;;;;12.10;6.72;;;26.40;90.90;;;;;;5008265;28;20038;-53
2023/03/14 04:24:49;;;;;;;8.70;5.60;;;26.50;91.00;;;;;;5007751;28;20077;-53
2023/03/14 04:27:15;;;;;;;10.75;6.28;;;26.50;91.00;;;;;;5007976;28;20058;-52
2023/03/14 04:29:44;;;;;;;11.40;6.20;;;26.40;90.90;;;;;;5007725;28;20222;-49
2023/03/14 04:32:11;;;;;;;9.20;5.47;;;26.50;90.90;;;;;;5007758;28;20295;-53
2023/03/14 04:34:37;;;;;;;9.77;5.80;;;26.50;90.90;;;;;;5007431;28;20321;-53
2023/03/14 04:37:04;;;;;;;8.77;6.20;;;26.40;90.80;;;;;;5007837;28;20038;-53
2023/03/14 04:39:31;;;;;;;9.85;6.00;;;26.40;90.80;;;;;;5007359;28;20046;-59
2023/03/14 04:41:57;;;;;;;9.15;5.90;;;26.40;90.70;;;;;;5007300;28;20038;-51
2023/03/14 04:44:24;;;;;;;9.20;6.10;;;26.40;90.70;;;;;;5007307;28;20037;-50
2023/03/14 04:46:50;;;;;;;8.50;5.75;;;26.50;90.70;;;;;;5007365;28;20057;-52
2023/03/14 04:49:17;;;;;;;8.23;6.10;;;26.50;90.70;;;;;;5007203;28;20027;-54
2023/03/14 04:51:43;;;;;;;10.93;6.22;;;26.50;90.70;;;;;;5007312;28;20093;-52
2023/03/14 04:54:10;;;;;;;11.07;6.00;;;26.40;90.60;;;;;;5006481;28;20053;-50
2023/03/14 04:56:37;;;;;;;6.78;5.75;;;26.50;90.60;;;;;;5007293;28;20042;-53
2023/03/14 04:59:05;;;;;;;9.27;5.55;;;26.50;90.60;;;;;;5006973;28;20045;-54
2023/03/14 05:01:31;;;;;;;9.57;5.85;;;26.50;90.60;;;;;;5007120;28;20046;-46
2023/03/14 05:03:58;;;;;;;11.25;6.13;;;26.50;90.60;;;;;;5007036;28;20033;-52
2023/03/14 05:06:24;;;;;;;10.77;5.97;;;26.50;90.60;;;;;;5007113;28;20282;-49
2023/03/14 05:08:51;;;;;;;14.60;6.03;;;26.50;90.60;;;;;;5006954;28;20192;-47
2023/03/14 05:11:18;;;;;;;11.23;6.20;;;26.50;90.60;;;;;;5006719;28;20022;-49
2023/03/14 05:13:44;;;;;;;6.38;5.25;;;26.50;90.60;;;;;;5007381;28;20220;-47
2023/03/14 05:16:11;;;;;;;9.13;5.82;;;26.40;90.60;;;;;;5006712;28;20023;-47
2023/03/14 05:18:38;;;;;;;9.52;6.22;;;26.50;90.70;;;;;;5006857;28;20041;-59
2023/03/14 05:21:05;;;;;;;8.88;6.43;;;26.40;90.70;;;;;;5006529;28;20221;-53
2023/03/14 05:23:32;;;;;;;9.95;6.70;;;26.50;90.70;;;;;;5007344;28;20030;-52
2023/03/14 05:25:58;;;;;;;9.68;6.18;;;26.50;90.80;;;;;;5006738;28;20026;-52
2023/03/14 05:28:25;;;;;;;10.20;6.18;;;26.40;90.70;;;;;;5006852;28;20034;-54
2023/03/14 05:30:51;;;;;;;10.43;5.85;;;26.40;90.80;;;;;;5006974;28;20089;-51
2023/03/14 05:33:18;;;;;;;13.20;9.00;;;26.40;90.90;;;;;;5006990;28;20072;-46
2023/03/14 05:35:45;;;;;;;19.55;17.60;;;26.40;90.90;;;;;;5006329;28;20030;-53
2023/03/14 05:38:11;;;;;;;18.55;15.40;;;26.40;91.20;;;;;;5006872;28;20180;-48
2023/03/14 05:40:38;;;;;;;17.38;12.52;;;26.40;91.00;;;;;;5006160;28;20326;-49
2023/03/14 05:43:07;;;;;;;12.95;9.65;;;26.40;91.10;;;;;;5006568;28;20056;-51
2023/03/14 05:45:35;;;;;;;12.48;9.85;;;26.40;91.10;;;;;;5006125;28;20030;-52
2023/03/14 05:48:02;;;;;;;12.07;8.70;;;26.40;91.10;;;;;;5006496;28;20026;-52
2023/03/14 05:50:28;;;;;;;12.30;8.63;;;26.40;91.10;;;;;;5006032;28;20085;-49
2023/03/14 05:52:55;;;;;;;11.93;7.80;;;26.30;91.20;;;;;;5006451;28;20029;-49
2023/03/14 05:55:21;;;;;;;10.57;7.97;;;26.30;91.20;;;;;;5005998;28;20410;-54
2023/03/14 05:57:48;;;;;;;9.65;8.00;;;26.30;91.10;;;;;;5006420;28;20219;-53
2023/03/14 06:00:16;;;;;;;10.27;7.50;;;26.40;91.20;;;;;;5005920;28;20095;-55
2023/03/14 06:02:42;;;;;;;9.63;7.32;;;26.30;91.10;;;;;;5006275;28;20050;-49
2023/03/14 06:05:09;;;;;;;8.30;7.05;;;26.30;91.20;;;;;;5004816;28;20221;-49
2023/03/14 06:07:35;;;;;;;13.88;7.93;;;26.30;91.20;;;;;;5006130;28;20065;-54
2023/03/14 06:10:02;;;;;;;11.13;7.57;;;26.30;91.10;;;;;;5005920;28;20033;-49
2023/03/14 06:12:29;;;;;;;10.18;6.80;;;26.30;91.10;;;;;;5005857;28;20060;-49
2023/03/14 06:14:55;;;;;;;8.45;6.78;;;26.30;91.20;;;;;;5005612;28;20014;-52
2023/03/14 06:17:22;;;;;;;8.95;7.13;;;26.30;91.10;;;;;;5005898;28;20034;-46
2023/03/14 06:19:48;;;;;;;10.00;6.60;;;26.30;91.00;;;;;;5005412;28;20222;-50
2023/03/14 06:22:15;;;;;;;7.03;6.20;;;26.30;91.00;;;;;;5006025;28;20194;-50
2023/03/14 06:24:43;;;;;;;10.30;6.75;;;26.30;90.90;;;;;;5005508;28;20065;-48
2023/03/14 06:27:10;;;;;;;9.85;6.10;;;26.30;90.90;;;;;;5005469;28;20112;-50
2023/03/14 06:29:36;;;;;;;7.13;6.18;;;26.30;90.80;;;;;;5005334;28;20010;-52
2023/03/14 06:32:04;;;;;;;8.05;5.75;;;26.30;90.80;;;;;;5005515;28;20037;-50
2023/03/14 06:34:30;;;;;;;10.80;6.03;;;26.30;90.70;;;;;;5005113;28;20030;-53
2023/03/14 06:36:57;;;;;;;11.25;6.03;;;26.30;90.70;;;;;;5005479;28;20206;-54
2023/03/14 06:39:24;;;;;;;9.15;6.10;;;26.30;90.60;;;;;;5005142;28;20030;-54
2023/03/14 06:41:50;;;;;;;7.57;5.90;;;26.30;90.60;;;;;;5005214;28;20042;-54
2023/03/14 06:44:17;;;;;;;9.00;5.63;;;26.30;90.60;;;;;;5005166;28;20030;-54
2023/03/14 06:46:43;;;;;;;10.60;5.93;;;26.30;90.50;;;;;;5005176;28;20051;-49
2023/03/14 06:49:10;;;;;;;8.70;5.90;;;26.30;90.50;;;;;;5005001;28;20026;-51
2023/03/14 06:51:36;;;;;;;8.23;5.50;;;26.30;90.60;;;;;;5005221;28;20029;-53
2023/03/14 06:54:03;;;;;;;7.35;6.05;;;26.30;90.50;;;;;;5005001;28;20018;-54
2023/03/14 06:56:30;;;;;;;11.07;6.13;;;26.30;90.60;;;;;;5004980;28;20030;-49
2023/03/14 06:58:56;;;;;;;7.40;5.47;;;26.30;90.60;;;;;;5004697;28;20026;-52
2023/03/14 07:01:29;;;;;;;12.50;6.10;;;26.30;90.50;;;;;;5004758;28;20032;-51
2023/03/14 07:03:56;;;;;;;6.60;5.68;;;26.30;90.50;;;;;;5004718;28;20101;-51
2023/03/14 07:06:23;;;;;;;10.25;6.05;;;26.30;90.50;;;;;;5004936;28;20430;-52
2023/03/14 07:08:49;;;;;;;7.60;5.97;;;26.30;90.40;;;;;;5004883;28;20038;-51
2023/03/14 07:11:16;;;;;;;6.78;5.88;;;26.30;90.40;;;;;;5004665;28;20025;-46
2023/03/14 07:13:42;;;;;;;7.57;5.57;;;26.30;90.40;;;;;;5004915;28;20089;-49
2023/03/14 07:16:09;;;;;;;10.73;5.72;;;26.30;90.40;;;;;;5004516;28;20058;-48
2023/03/14 07:18:37;;;;;;;9.95;6.47;;;26.30;90.30;;;;;;5005019;28;20026;-49
2023/03/14 07:21:04;;;;;;;7.43;6.13;;;26.30;90.30;;;;;;5004388;28;20050;-50
2023/03/14 07:23:31;;;;;;;7.50;5.60;;;26.30;90.30;;;;;;5005066;28;20088;-48
2023/03/14 07:25:57;;;;;;;7.03;5.60;;;26.30;90.30;;;;;;5004508;28;20330;-48
2023/03/14 07:28:24;;;;;;;9.70;6.13;;;26.30;90.20;;;;;;5005022;28;20356;-46
2023/03/14 07:30:51;;;;;;;7.38;5.63;;;26.30;90.20;;;;;;5004502;28;20030;-52
2023/03/14 07:33:17;;;;;;;9.88;5.68;;;26.30;90.20;;;;;;5004930;28;20030;-54
2023/03/14 07:35:44;;;;;;;11.50;6.47;;;26.30;90.20;;;;;;5004310;28;20273;-54
2023/03/14 07:38:10;;;;;;;7.50;5.78;;;26.30;90.20;;;;;;5004916;28;20333;-53
2023/03/14 07:40:37;;;;;;;10.00;5.63;;;26.30;90.20;;;;;;5004211;28;20105;-47
2023/03/14 07:43:03;;;;;;;10.80;6.32;;;26.30;90.20;;;;;;5004625;28;20303;-46
2023/03/14 07:45:30;;;;;;;9.57;5.65;;;26.30;90.20;;;;;;5004287;28;20323;-49
2023/03/14 07:47:57;;;;;;;7.72;5.78;;;26.30;90.10;;;;;;5004669;28;20246;-53
2023/03/14 07:50:25;;;;;;;8.38;5.95;;;26.30;90.10;;;;;;5004183;28;20126;-45
2023/03/14 07:52:52;;;;;;;7.93;5.78;;;26.30;90.20;;;;;;5004620;28;20056;-52
2023/03/14 07:55:19;;;;;;;9.65;5.97;;;26.30;90.20;;;;;;4986932;28;20022;-52
2023/03/14 07:57:45;;;;;;;6.82;5.88;;;26.30;90.20;;;;;;5004443;28;20035;-49
2023/03/14 08:00:13;;;;;;;7.15;5.85;;;26.30;90.20;;;;;;5004261;28;20034;-46
2023/03/14 08:02:41;;;;;;;7.60;5.97;;;26.30;90.30;;;;;;5004510;28;20323;-52
2023/03/14 08:05:08;;;;;;;8.15;6.10;;;26.30;90.20;;;;;;5004089;28;20090;-53
2023/03/14 08:07:34;;;;;;;8.45;6.00;;;26.30;90.20;;;;;;5004542;28;20034;-54
2023/03/14 08:10:01;;;;;;;9.05;5.65;;;26.30;90.20;;;;;;5004171;28;20026;-54
2023/03/14 08:12:27;;;;;;;7.68;6.10;;;26.30;90.30;;;;;;5004326;28;20085;-54
2023/03/14 08:14:54;;;;;;;9.65;5.60;;;26.30;90.30;;;;;;5004297;28;20057;-55
2023/03/14 08:17:20;;;;;;;8.65;5.63;;;26.30;90.40;;;;;;5009164;28;20049;-58
2023/03/14 08:19:47;;;;;;;8.05;6.15;;;26.30;90.40;;;;;;5009640;28;20250;-55
2023/03/14 08:22:14;;;;;;;9.05;5.90;;;26.30;90.40;;;;;;5004459;28;20054;-58
2023/03/14 08:24:40;;;;;;;9.07;5.82;;;26.20;90.50;;;;;;5004077;28;20025;-55
2023/03/14 08:27:07;;;;;;;11.27;6.22;;;26.30;90.50;;;;;;5003985;28;20030;-54
2023/03/14 08:29:34;;;;;;;6.63;5.55;;;26.30;90.50;;;;;;5007647;28;20089;-52
2023/03/14 08:32:00;;;;;;;8.55;5.60;;;26.30;90.60;;;;;;5007764;28;20025;-51
2023/03/14 08:34:27;;;;;;;9.73;5.78;;;26.20;90.50;;;;;;5007576;28;20033;-50
2023/03/14 08:36:56;;;;;;;6.63;5.68;;;26.30;90.60;;;;;;5007703;28;20299;-47
2023/03/14 08:39:23;;;;;;;10.75;5.97;;;26.30;90.60;;;;;;5007595;28;20022;-47
2023/03/14 08:41:50;;;;;;;8.63;5.65;;;26.20;90.60;;;;;;5007429;28;20109;-59
2023/03/14 08:44:16;;;;;;;9.18;5.85;;;26.30;90.60;;;;;;5007425;28;20072;-49
2023/03/14 08:46:43;;;;;;;11.68;5.45;;;26.20;90.50;;;;;;5007543;28;20022;-47
2023/03/14 08:49:10;;;;;;;8.02;6.15;;;26.20;90.50;;;;;;5007377;28;20076;-48
2023/03/14 08:51:36;;;;;;;11.43;5.90;;;26.30;90.70;;;;;;5007314;28;20038;-47
2023/03/14 08:54:03;;;;;;;7.22;5.82;;;26.20;90.60;;;;;;5007261;28;20014;-44
2023/03/14 08:56:30;;;;;;;6.13;5.13;;;26.30;90.70;;;;;;5007212;28;20030;-46
2023/03/14 08:58:56;;;;;;;10.43;5.97;;;26.20;90.70;;;;;;5007351;28;20038;-51
2023/03/14 09:01:25;;;;;;;6.80;5.60;;;26.20;90.80;;;;;;5007089;28;20033;-49
2023/03/14 09:03:51;;;;;;;7.40;5.68;;;26.20;90.80;;;;;;5007156;28;20323;-48
2023/03/14 09:06:18;;;;;;;9.10;5.65;;;26.20;90.70;;;;;;5020577;28;20038;-51
2023/03/14 09:08:45;;;;;;;7.35;5.60;;;26.20;90.70;;;;;;5026477;28;20017;-49
2023/03/14 09:11:12;;;;;;;8.85;5.80;;;26.20;90.70;;;;;;5026072;28;20033;-53
2023/03/14 09:13:39;;;;;;;9.63;5.38;;;26.20;90.80;;;;;;5026366;28;20315;-55
2023/03/14 09:16:06;;;;;;;7.45;5.78;;;26.30;90.80;;;;;;5026348;28;20242;-55
2023/03/14 09:18:33;;;;;;;8.23;5.70;;;26.20;90.80;;;;;;5026850;28;20366;-55
2023/03/14 09:20:59;;;;;;;8.85;5.60;;;26.20;90.90;;;;;;5025860;28;20064;-52
2023/03/14 09:23:26;;;;;;;9.30;5.72;;;26.20;90.80;;;;;;5024937;28;20036;-54
2023/03/14 09:25:59;;;;;;;8.98;5.57;;;26.20;90.80;;;;;;5024443;28;20314;-50
2023/03/14 09:28:27;;;;;;;9.82;5.68;;;26.20;90.80;;;;;;5024858;28;20207;-46
2023/03/14 09:30:54;;;;;;;8.50;5.53;;;26.20;90.80;;;;;;5024432;28;20068;-48
2023/03/14 09:33:21;;;;;;;8.77;5.70;;;26.20;90.80;;;;;;5024808;28;20057;-48
2023/03/14 09:35:47;;;;;;;7.25;5.40;;;26.20;90.80;;;;;;5024547;28;20022;-53
2023/03/14 09:38:14;;;;;;;8.25;5.90;;;26.20;90.70;;;;;;5026059;28;20026;-50
2023/03/14 09:40:41;;;;;;;8.23;5.63;;;26.20;90.70;;;;;;5025751;28;20053;-49
2023/03/14 09:43:15;;;;;;;8.75;5.90;;;26.20;90.70;;;;;;5026131;28;20026;-47
2023/03/14 09:45:45;;;;;;;8.05;5.28;;;26.20;90.70;;;;;;5025771;28;20025;-48
2023/03/14 09:48:22;;;;;;;6.57;5.32;;;26.20;90.60;;;;;;5026107;28;20033;-47
2023/03/14 09:50:57;;;;;;;7.85;5.65;;;26.20;90.60;;;;;;5025858;28;20025;-47
2023/03/14 09:53:28;;;;;;;8.80;5.63;;;26.10;90.60;;;;;;5026095;28;20038;-51
2023/03/14 09:55:58;;;;;;;7.32;5.63;;;26.20;90.60;;;;;;5025662;28;20144;-52
2023/03/14 09:58:25;;;;;;;8.00;5.60;;;26.20;90.60;;;;;;5026099;28;20029;-50
2023/03/14 10:00:55;;;;;;;11.30;5.90;;;26.20;90.60;;;;;;5025465;28;20030;-50
2023/03/14 10:03:35;;;;;;;7.90;5.80;;;26.10;90.50;;;;;;5026002;28;20037;-49
2023/03/14 10:06:04;;;;;;;9.98;6.07;;;26.10;90.50;;;;;;5025345;28;20053;-52
2023/03/14 10:08:30;;;;;;;8.73;5.78;;;26.20;90.50;;;;;;5025846;28;20133;-48
2023/03/14 10:10:57;;;;;;;8.65;5.82;;;26.20;90.40;;;;;;5025383;28;20045;-51
2023/03/14 10:13:27;;;;;;;9.27;5.53;;;26.10;90.40;;;;;;5025756;28;20037;-51
2023/03/14 10:15:59;;;;;;;7.13;5.50;;;26.10;90.40;;;;;;5025420;28;20064;-52
2023/03/14 10:18:26;;;;;;;7.53;5.45;;;26.10;90.50;;;;;;5025733;28;20100;-49
2023/03/14 10:21:07;;;;;;;7.22;5.78;;;26.10;90.50;;;;;;5025137;28;20202;-50
2023/03/14 10:23:35;;;;;;;7.55;5.68;;;26.10;90.50;;;;;;5007827;28;20310;-48
2023/03/14 10:26:12;;;;;;;9.75;6.03;;;26.10;90.60;;;;;;5024958;28;20029;-53
2023/03/14 10:29:21;;;;;;;7.70;6.10;;;26.10;90.50;;;;;;5024953;28;20038;-51
2023/03/14 10:32:01;;;;;;;10.50;5.90;;;26.10;90.50;;;;;;5024964;28;20176;-50
2023/03/14 10:34:36;;;;;;;7.60;5.35;;;26.10;90.40;;;;;;5024813;28;20057;-53
2023/03/14 10:37:22;;;;;;;10.48;5.65;;;26.10;90.40;;;;;;5025032;28;20066;-55
2023/03/14 10:39:53;;;;;;;6.03;5.38;;;26.10;90.50;;;;;;5024574;28;20045;-48
2023/03/14 10:42:44;;;;;;;8.70;5.93;;;26.10;90.60;;;;;;5024855;28;20083;-50
2023/03/14 10:45:45;;;;;;;8.32;6.45;;;26.10;90.60;;;;;;5024988;28;20032;-52
2023/03/14 10:48:32;;;;;;;10.05;5.63;;;26.00;90.70;;;;;;5024623;28;20053;-49
2023/03/14 10:51:05;;;;;;;10.02;6.13;;;26.00;90.70;;;;;;5024188;28;20020;-52
2023/03/14 10:53:56;;;;;;;8.45;6.57;;;26.00;90.70;;;;;;5024519;28;20169;-47
2023/03/14 10:56:25;;;;;;;11.18;6.30;;;26.00;90.70;;;;;;5024605;28;20013;-47
2023/03/14 10:58:56;;;;;;;9.73;6.68;;;26.00;90.70;;;;;;5024438;28;20041;-52
2023/03/14 11:01:32;;;;;;;9.85;6.40;;;26.00;90.70;;;;;;5024554;28;20375;-59
2023/03/14 11:07:38;;;;;;;7.43;5.88;;;26.00;90.70;;;;;;5026276;28;20033;-47
2023/03/14 11:10:34;;;;;;;9.85;6.63;;;26.00;90.70;;;;;;5024865;28;20034;-48
2023/03/14 11:13:18;;;;;;;11.00;6.55;;;26.00;90.70;;;;;;5016828;28;20226;-49
2023/03/14 11:16:07;;;;;;;8.60;5.53;;;26.00;90.70;;;;;;5019140;28;20234;-50
2023/03/14 11:18:52;;;;;;;11.52;6.35;;;26.00;90.50;;;;;;5004690;28;20026;-54
2023/03/14 11:21:42;;;;;;;8.20;6.40;;;26.00;90.30;;;;;;5008457;28;20061;-53
2023/03/14 11:24:30;;;;;;;11.32;6.35;;;26.00;90.20;;;;;;5008503;28;20080;-48
2023/03/14 11:27:10;;;;;;;8.75;6.00;;;26.00;89.90;;;;;;5022960;28;20033;-49
2023/03/14 11:29:41;;;;;;;12.52;5.75;;;26.00;89.80;;;;;;5023279;28;20018;-46
2023/03/14 11:32:31;;;;;;;15.50;6.15;;;26.00;89.30;;;;;;5024171;28;20326;-50
2023/03/14 11:35:02;;;;;;;19.63;7.38;;;26.00;89.90;;;;;;5024374;28;20065;-49
2023/03/14 11:38:02;;;;;;;14.70;6.30;;;25.90;88.30;;;;;;5024180;28;20052;-49
2023/03/14 11:40:29;;;;;;;14.38;6.28;;;25.90;88.70;;;;;;5023573;28;20069;-50
2023/03/14 11:43:20;;;;;;;18.25;5.88;;;25.90;89.00;;;;;;5023857;28;20072;-51
2023/03/14 11:45:51;;;;;;;13.35;5.63;;;25.90;89.40;;;;;;5024040;28;20026;-49
2023/03/14 11:48:27;;;;;;;14.27;6.07;;;25.90;89.40;;;;;;5023747;28;20037;-50
2023/03/14 11:50:57;;;;;;;12.73;5.13;;;25.90;89.50;;;;;;5023952;28;20018;-46
2023/03/14 11:53:55;;;;;;;13.88;5.53;;;26.00;89.60;;;;;;5023740;28;20257;-53
2023/03/14 11:56:51;;;;;;;13.75;6.03;;;26.00;89.50;;;;;;5023197;28;20033;-46
2023/03/14 11:59:24;;;;;;;12.65;6.25;;;26.00;89.60;;;;;;4989919;28;20104;-54
2023/03/14 12:02:05;;;;;;;12.02;5.78;;;26.00;89.80;;;;;;5023720;28;20057;-45
2023/03/14 12:04:50;;;;;;;10.90;5.93;;;26.00;90.00;;;;;;5027915;28;20042;-47
2023/03/14 12:08:03;;;;;;;11.93;6.70;;;26.00;90.10;;;;;;5027501;28;20029;-52
2023/03/14 12:10:36;;;;;;;12.00;5.85;;;26.10;89.90;;;;;;4997664;28;20053;-54
2023/03/14 12:13:03;;;;;;;14.98;6.65;;;26.10;89.30;;;;;;5027589;28;20017;-51
2023/03/14 12:15:30;;;;;;;9.68;6.32;;;26.10;89.40;;;;;;5027894;28;20044;-52
2023/03/14 12:17:57;;;;;;;12.52;6.45;;;26.10;89.40;;;;;;5027502;28;20009;-48
2023/03/14 12:20:26;;;;;;;11.63;6.03;;;26.10;89.30;;;;;;5027973;28;20014;-47
2023/03/14 12:22:54;;;;;;;11.77;6.75;;;26.10;89.40;;;;;;5027280;28;20038;-47
2023/03/14 12:25:25;;;;;;;17.85;7.03;;;26.10;89.60;;;;;;5027697;28;20030;-48
2023/03/14 12:27:54;;;;;;;14.20;6.32;;;26.10;89.90;;;;;;5027334;28;20225;-54
2023/03/14 12:30:30;;;;;;;11.52;6.63;;;26.10;90.00;;;;;;5027675;28;20022;-53
2023/03/14 12:33:12;;;;;;;15.45;7.10;;;26.10;89.90;;;;;;5027244;28;20317;-47
2023/03/14 12:35:43;;;;;;;15.77;6.93;;;26.10;90.00;;;;;;5027130;28;20037;-48
2023/03/14 12:38:30;;;;;;;13.43;6.28;;;26.10;90.10;;;;;;5027136;28;20069;-46
2023/03/14 12:41:21;;;;;;;12.32;7.22;;;26.10;90.20;;;;;;5026751;28;20050;-54
2023/03/14 12:43:47;;;;;;;11.68;6.25;;;26.10;90.30;;;;;;5026976;28;20109;-48
2023/03/14 12:46:24;;;;;;;10.73;6.82;;;26.10;90.30;;;;;;5026801;28;20024;-52
2023/03/14 12:49:02;;;;;;;11.50;7.03;;;26.10;90.40;;;;;;5026863;28;20041;-48
2023/03/14 12:51:36;;;;;;;11.95;6.82;;;26.10;90.80;;;;;;5026787;28;20014;-49
2023/03/14 12:54:10;;;;;;;15.20;7.53;;;26.10;90.70;;;;;;5026885;28;20030;-45
2023/03/14 12:57:01;;;;;;;15.27;7.53;;;26.10;90.90;;;;;;5026575;28;20262;-48
2023/03/14 12:59:36;;;;;;;13.05;7.80;;;26.10;91.20;;;;;;5026912;28;20041;-46
2023/03/14 13:02:08;;;;;;;14.35;8.90;;;26.10;91.40;;;;;;5026697;28;20357;-49
2023/03/14 13:04:47;;;;;;;16.88;8.95;;;26.00;91.90;;;;;;5026849;28;20084;-46
2023/03/14 13:07:38;;;;;;;17.73;8.85;;;26.00;92.20;;;;;;5026413;28;20065;-52